Nearby METAR Reports

 

KSJC - San Jose, California, USA
Distance from station: NO 14km
aktuell: 19/02/2018 13:53
geschlossene Wolkendecke
geschlossene Wolkendecke
 Wind von W
Wind: W 17 km/h
Temperatur: 7°C
Wind Chill: 4°C
Taupunkt: -1°C
Luftfeuchte: 57%
Luftdruck: 1014.9 hPa
Clouds: geschlossene Wolkendecke
Visibility: 16 km
Cloud details: stark bewölkt 1158 m
stark bewölkt 1463 m
geschlossene Wolkendecke 3048 m
2018/02/19 12:53 KSJC 191253Z AUTO 27009KT 10SM BKN038 BKN048 OVC100 07/M01 A2997 RMK AO2 SLP149 T00671006
KNUQ - Moffett Nas/Mtn, California, USA
Distance from station: N 14km
aktuell: 19/02/2018 13:56
geschlossene Wolkendecke
geschlossene Wolkendecke
 Wind von WNW
Wind: WNW 13 km/h
Temperatur: 6°C
Wind Chill: 3°C
Taupunkt: -1°C
Luftfeuchte: 61%
Luftdruck: 1015.6 hPa
Clouds: geschlossene Wolkendecke
Visibility: 16 km
Cloud details: geschlossene Wolkendecke 2743 m
2018/02/19 12:56 KNUQ 191256Z 29007KT 10SM OVC090 06/M01 A2999 RMK AO2 SLP157 T00611006
 
KPAO - Palo Alto, California, USA
Distance from station: NNW 23km
aktuell: 19/02/2018 05:47
NOT Current
Few Clouds
Few Clouds
 Wind von W
Wind: W 28 km/h
Clouds: Few Clouds
Visibility: 16 km
Cloud details: Few Clouds 1067 m
2018/02/19 04:47 KPAO 190447Z 28015KT 10SM FEW035 --/-- A2998 RMK LAST
KRHV - San Jose/Reid, California, USA
Distance from station: ONO 19km
aktuell: 19/02/2018 06:47
NOT Current
stark bewölkt
stark bewölkt
 Wind von NNW
Wind: NNW 19 km/h
Temperatur: 6°C
Wind Chill: 3°C
Taupunkt: 1°C
Luftfeuchte: 71%
Luftdruck: 1014.9 hPa
Clouds: stark bewölkt
Visibility: 13 km
Cloud details: stark bewölkt 1067 m
2018/02/19 05:47 KRHV 190547Z 33010KT 8SM BKN035 06/01 A2997 RMK LAST
 
KOAK - Oakland, California, USA
Distance from station: NNW 50km
aktuell: 19/02/2018 13:53
teilweise bewölkt
teilweise bewölkt
 Wind von WNW
Wind: WNW 26 km/h, Windböen: 41 km/h
Temperatur: 6°C
Wind Chill: 2°C
Taupunkt: -1°C
Luftfeuchte: 61%
Luftdruck: 1014.6 hPa
Clouds: teilweise bewölkt
Visibility: 16 km
Cloud details: teilweise bewölkt 2591 m
2018/02/19 12:53 KOAK 191253Z 30014G22KT 10SM SCT085 06/M01 A2996 RMK AO2 SLP145 T00611006
KSQL - San Carlos Airpo, California, USA
Distance from station: NW 34km
aktuell: 19/02/2018 14:15
geschlossene Wolkendecke
geschlossene Wolkendecke
 Wind von W
Wind: W 19 km/h, Windböen: 31 km/h
Temperatur: 6°C
Wind Chill: 3°C
Taupunkt: 0°C
Luftfeuchte: 66%
Luftdruck: 1014.9 hPa
Clouds: geschlossene Wolkendecke
Visibility: 16 km
Cloud details: teilweise bewölkt 2286 m
geschlossene Wolkendecke 3658 m
2018/02/19 13:15 KSQL 191315Z AUTO 28010G17KT 10SM SCT075 OVC120 06/00 A2997 RMK AO2
 
KSFO - San Francisco, California, USA
Distance from station: NW 49km
aktuell: 19/02/2018 13:56
stark bewölkt
stark bewölkt
 Wind von WNW
Wind: WNW 28 km/h
Temperatur: 6°C
Wind Chill: 2°C
Taupunkt: 0°C
Luftfeuchte: 66%
Luftdruck: 1015.2 hPa
Clouds: stark bewölkt
Visibility: 16 km
Cloud details: stark bewölkt 2286 m
stark bewölkt 2896 m
2018/02/19 12:56 KSFO 191256Z 29015KT 10SM BKN075 BKN095 06/00 A2998 RMK AO2 SLP150 T00610000 $
KE16 - San Martin, California, USA
Distance from station: OSO 43km
aktuell: 19/02/2018 14:15
stark bewölkt
stark bewölkt
 Wind von NNW
Wind: NNW 6 km/h
Temperatur: 3°C
Taupunkt: -1°C
Luftfeuchte: 75%
Luftdruck: 1015.2 hPa
Clouds: stark bewölkt
Visibility: 16 km
Cloud details: stark bewölkt 1036 m
stark bewölkt 1250 m
2018/02/19 13:15 KE16 191315Z AUTO 34003KT 10SM BKN034 BKN041 03/M01 A2998 RMK AO2
 
KWVI - Watsonville, California, USA
Distance from station: SSO 44km
aktuell: 19/02/2018 13:53
klar
klar
 Wind von NNW
Wind: NNW 6 km/h
Temperatur: 1°C
Taupunkt: -2°C
Luftfeuchte: 81%
Luftdruck: 1015.2 hPa
Clouds: klar
Visibility: 14 km
2018/02/19 12:53 KWVI 191253Z AUTO 33003KT 9SM CLR 01/M02 A2998 RMK AO2 SLP154 T00061017
KHAF - Half Moon Bay, California, USA
Distance from station: WNW 50km
aktuell: 19/02/2018 14:15
geschlossene Wolkendecke
geschlossene Wolkendecke
 Wind von NNW
Wind: NNW 19 km/h, Windböen: 37 km/h
Temperatur: 6°C
Wind Chill: 3°C
Taupunkt: 1°C
Luftfeuchte: 71%
Luftdruck: 1014.6 hPa
Clouds: geschlossene Wolkendecke
Visibility: 14 km
Cloud details: teilweise bewölkt 884 m
stark bewölkt 1219 m
geschlossene Wolkendecke 2286 m
2018/02/19 13:15 KHAF 191315Z AUTO 34010G20KT 9SM SCT029 BKN040 OVC075 06/01 A2996 RMK AO2
 
KHWD - Hayward, California, USA
Distance from station: N 44km
aktuell: 19/02/2018 13:54
klar
klar
 Wind von NW
Wind: NW 19 km/h
Temperatur: 6°C
Wind Chill: 3°C
Taupunkt: -3°C
Luftfeuchte: 53%
Luftdruck: 1014.9 hPa
Clouds: klar
Visibility: 16 km
2018/02/19 12:54 KHWD 191254Z AUTO 32010KT 10SM CLR 06/M03 A2997 RMK AO2 SLP157 T00561033
KLVK - Livermore, California, USA
Distance from station: NNO 51km
aktuell: 19/02/2018 13:53
stark bewölkt
stark bewölkt
 Wind von W
Wind: W 17 km/h
Temperatur: 3°C
Wind Chill: -1°C
Taupunkt: -2°C
Luftfeuchte: 70%
Luftdruck: 1013.5 hPa
Clouds: stark bewölkt
Visibility: 16 km
Cloud details: stark bewölkt 3048 m
2018/02/19 12:53 KLVK 191253Z AUTO 28009KT 10SM BKN100 03/M02 A2993 RMK AO2 SLP137 T00331017